sensor_id;sensor_type;location;lat;lon;timestamp;temperature;humidity
17007;DHT22;8620;51.168;4.154;2023-04-03T07:01:24;7.70;99.90
17007;DHT22;8620;51.168;4.154;2023-04-03T07:03:57;8.60;99.90
17007;DHT22;8620;51.168;4.154;2023-04-03T07:06:23;8.00;99.90
17007;DHT22;8620;51.168;4.154;2023-04-03T07:08:52;7.30;99.90
17007;DHT22;8620;51.168;4.154;2023-04-03T07:11:18;7.40;99.90
17007;DHT22;8620;51.168;4.154;2023-04-03T07:13:57;8.20;99.90
17007;DHT22;8620;51.168;4.154;2023-04-03T07:16:30;9.10;99.90
17007;DHT22;8620;51.168;4.154;2023-04-03T07:18:59;9.70;99.90
17007;DHT22;8620;51.168;4.154;2023-04-03T07:21:25;10.20;99.90
17007;DHT22;8620;51.168;4.154;2023-04-03T07:23:51;9.70;99.90
17007;DHT22;8620;51.168;4.154;2023-04-03T07:26:17;9.50;99.90
17007;DHT22;8620;51.168;4.154;2023-04-03T07:28:51;9.10;99.90
17007;DHT22;8620;51.168;4.154;2023-04-03T07:31:39;10.40;99.90
17007;DHT22;8620;51.168;4.154;2023-04-03T07:34:24;11.10;99.90
17007;DHT22;8620;51.168;4.154;2023-04-03T07:36:55;9.90;99.90
17007;DHT22;8620;51.168;4.154;2023-04-03T07:39:31;10.00;99.90
17007;DHT22;8620;51.168;4.154;2023-04-03T07:42:20;8.80;99.90
17007;DHT22;8620;51.168;4.154;2023-04-03T07:44:50;9.20;99.90
17007;DHT22;8620;51.168;4.154;2023-04-03T07:47:42;8.50;99.90
17007;DHT22;8620;51.168;4.154;2023-04-03T07:50:08;9.50;99.90
17007;DHT22;8620;51.168;4.154;2023-04-03T07:52:36;10.10;99.90
17007;DHT22;8620;51.168;4.154;2023-04-03T07:55:03;11.00;99.90
17007;DHT22;8620;51.168;4.154;2023-04-03T07:57:32;10.90;99.90
17007;DHT22;8620;51.168;4.154;2023-04-03T08:03:22;9.20;99.90
17007;DHT22;8620;51.168;4.154;2023-04-03T08:05:53;9.10;99.90
17007;DHT22;8620;51.168;4.154;2023-04-03T08:08:21;9.60;99.90
17007;DHT22;8620;51.168;4.154;2023-04-03T08:10:53;10.30;99.90
17007;DHT22;8620;51.168;4.154;2023-04-03T08:13:20;10.70;99.90
17007;DHT22;8620;51.168;4.154;2023-04-03T08:15:54;9.80;99.90
17007;DHT22;8620;51.168;4.154;2023-04-03T08:18:36;10.00;99.90
17007;DHT22;8620;51.168;4.154;2023-04-03T08:21:21;9.10;99.90
17007;DHT22;8620;51.168;4.154;2023-04-03T08:24:04;9.70;99.90
17007;DHT22;8620;51.168;4.154;2023-04-03T08:26:56;10.50;99.90
17007;DHT22;8620;51.168;4.154;2023-04-03T08:29:34;10.60;99.90
17007;DHT22;8620;51.168;4.154;2023-04-03T08:32:06;11.30;99.90
17007;DHT22;8620;51.168;4.154;2023-04-03T08:34:54;10.90;99.90
17007;DHT22;8620;51.168;4.154;2023-04-03T08:37:30;11.10;99.90
17007;DHT22;8620;51.168;4.154;2023-04-03T08:40:16;10.30;99.90
17007;DHT22;8620;51.168;4.154;2023-04-03T08:48:20;10.00;99.90
17007;DHT22;8620;51.168;4.154;2023-04-03T08:51:24;10.40;99.90
17007;DHT22;8620;51.168;4.154;2023-04-03T08:54:24;9.90;99.90
17007;DHT22;8620;51.168;4.154;2023-04-03T08:56:59;10.90;99.90
17007;DHT22;8620;51.168;4.154;2023-04-03T08:59:51;11.40;99.90
17007;DHT22;8620;51.168;4.154;2023-04-03T09:02:38;11.40;99.90
17007;DHT22;8620;51.168;4.154;2023-04-03T09:08:40;11.10;99.90
17007;DHT22;8620;51.168;4.154;2023-04-03T09:18:15;10.20;99.90
17007;DHT22;8620;51.168;4.154;2023-04-03T09:24:05;10.80;99.90
17007;DHT22;8620;51.168;4.154;2023-04-03T09:26:45;10.80;99.90
17007;DHT22;8620;51.168;4.154;2023-04-03T09:29:46;11.20;99.90
17007;DHT22;8620;51.168;4.154;2023-04-03T09:42:19;11.30;99.90
17007;DHT22;8620;51.168;4.154;2023-04-03T09:45:36;11.40;99.90
17007;DHT22;8620;51.168;4.154;2023-04-03T09:56:18;11.80;99.90
17007;DHT22;8620;51.168;4.154;2023-04-03T10:01:59;11.20;99.90
17007;DHT22;8620;51.168;4.154;2023-04-03T10:04:53;11.80;99.90
17007;DHT22;8620;51.168;4.154;2023-04-03T10:51:50;12.60;99.90
17007;DHT22;8620;51.168;4.154;2023-04-03T10:54:38;12.80;99.90
17007;DHT22;8620;51.168;4.154;2023-04-03T10:57:26;13.20;99.90
17007;DHT22;8620;51.168;4.154;2023-04-03T11:00:05;13.50;99.90
17007;DHT22;8620;51.168;4.154;2023-04-03T11:02:45;12.80;99.90
17007;DHT22;8620;51.168;4.154;2023-04-03T11:11:38;11.50;99.90
17007;DHT22;8620;51.168;4.154;2023-04-03T11:14:17;11.60;99.90
17007;DHT22;8620;51.168;4.154;2023-04-03T11:27:55;12.70;99.90
17007;DHT22;8620;51.168;4.154;2023-04-03T11:30:50;13.10;99.90
17007;DHT22;8620;51.168;4.154;2023-04-03T11:36:39;12.90;99.90
17007;DHT22;8620;51.168;4.154;2023-04-03T11:39:50;12.30;99.90
17007;DHT22;8620;51.168;4.154;2023-04-03T11:47:57;12.40;99.90
17007;DHT22;8620;51.168;4.154;2023-04-03T11:51:45;12.80;99.90
17007;DHT22;8620;51.168;4.154;2023-04-03T12:27:01;11.70;99.90
17007;DHT22;8620;51.168;4.154;2023-04-03T12:29:45;11.50;99.90
17007;DHT22;8620;51.168;4.154;2023-04-03T12:35:05;11.50;99.90
17007;DHT22;8620;51.168;4.154;2023-04-03T12:46:58;11.80;99.90
17007;DHT22;8620;51.168;4.154;2023-04-03T12:49:41;11.90;99.90
17007;DHT22;8620;51.168;4.154;2023-04-03T12:55:21;11.50;99.90
17007;DHT22;8620;51.168;4.154;2023-04-03T12:57:52;11.50;99.90
17007;DHT22;8620;51.168;4.154;2023-04-03T13:07:29;11.90;99.90
17007;DHT22;8620;51.168;4.154;2023-04-03T13:10:03;12.00;99.90
17007;DHT22;8620;51.168;4.154;2023-04-03T13:15:48;11.90;99.90
17007;DHT22;8620;51.168;4.154;2023-04-03T13:18:54;11.70;99.90
17007;DHT22;8620;51.168;4.154;2023-04-03T13:21:29;11.80;99.90
17007;DHT22;8620;51.168;4.154;2023-04-03T13:24:32;11.70;99.90
17007;DHT22;8620;51.168;4.154;2023-04-03T13:27:23;11.90;99.90
17007;DHT22;8620;51.168;4.154;2023-04-03T13:32:58;11.60;99.90
17007;DHT22;8620;51.168;4.154;2023-04-03T13:36:05;11.70;99.90
17007;DHT22;8620;51.168;4.154;2023-04-03T13:45:52;11.70;99.90
17007;DHT22;8620;51.168;4.154;2023-04-03T14:06:59;11.20;99.90
17007;DHT22;8620;51.168;4.154;2023-04-03T14:10:18;11.30;99.90
17007;DHT22;8620;51.168;4.154;2023-04-03T14:13:43;11.40;99.90
17007;DHT22;8620;51.168;4.154;2023-04-03T14:17:13;11.80;99.90
17007;DHT22;8620;51.168;4.154;2023-04-03T14:20:17;12.10;99.90
17007;DHT22;8620;51.168;4.154;2023-04-03T14:23:18;11.30;99.90
17007;DHT22;8620;51.168;4.154;2023-04-03T14:25:53;11.50;99.90
17007;DHT22;8620;51.168;4.154;2023-04-03T14:28:25;11.10;99.90
17007;DHT22;8620;51.168;4.154;2023-04-03T14:31:52;11.20;99.90
17007;DHT22;8620;51.168;4.154;2023-04-03T14:34:38;11.50;99.90
17007;DHT22;8620;51.168;4.154;2023-04-03T14:37:14;11.40;99.90
17007;DHT22;8620;51.168;4.154;2023-04-03T14:42:51;11.20;99.90
17007;DHT22;8620;51.168;4.154;2023-04-03T14:45:44;11.10;99.90
17007;DHT22;8620;51.168;4.154;2023-04-03T14:48:21;10.90;99.90
17007;DHT22;8620;51.168;4.154;2023-04-03T14:50:49;10.90;99.90
17007;DHT22;8620;51.168;4.154;2023-04-03T14:53:43;10.90;99.90
17007;DHT22;8620;51.168;4.154;2023-04-03T14:59:42;10.90;99.90
17007;DHT22;8620;51.168;4.154;2023-04-03T15:02:32;10.90;99.90
17007;DHT22;8620;51.168;4.154;2023-04-03T15:05:06;11.20;99.90
17007;DHT22;8620;51.168;4.154;2023-04-03T15:07:58;11.40;99.90
17007;DHT22;8620;51.168;4.154;2023-04-03T15:10:43;11.40;99.90
17007;DHT22;8620;51.168;4.154;2023-04-03T15:13:38;11.30;99.90
17007;DHT22;8620;51.168;4.154;2023-04-03T15:16:32;11.40;99.90
17007;DHT22;8620;51.168;4.154;2023-04-03T15:19:20;11.10;99.90
17007;DHT22;8620;51.168;4.154;2023-04-03T15:22:08;11.20;99.90
17007;DHT22;8620;51.168;4.154;2023-04-03T15:24:51;11.40;99.90
17007;DHT22;8620;51.168;4.154;2023-04-03T15:27:42;10.90;99.90
17007;DHT22;8620;51.168;4.154;2023-04-03T15:30:26;11.00;99.90
17007;DHT22;8620;51.168;4.154;2023-04-03T15:33:09;11.20;99.90
17007;DHT22;8620;51.168;4.154;2023-04-03T15:36:14;11.00;99.90
17007;DHT22;8620;51.168;4.154;2023-04-03T15:39:24;11.40;99.90
17007;DHT22;8620;51.168;4.154;2023-04-03T15:41:56;11.20;99.90
17007;DHT22;8620;51.168;4.154;2023-04-03T15:45:00;11.40;99.90
17007;DHT22;8620;51.168;4.154;2023-04-03T15:48:02;11.50;99.90
17007;DHT22;8620;51.168;4.154;2023-04-03T15:51:05;11.40;99.90
17007;DHT22;8620;51.168;4.154;2023-04-03T15:53:52;11.20;99.90
17007;DHT22;8620;51.168;4.154;2023-04-03T15:57:01;11.10;99.90
17007;DHT22;8620;51.168;4.154;2023-04-03T15:59:51;11.40;99.90
17007;DHT22;8620;51.168;4.154;2023-04-03T16:02:38;11.10;99.90
17007;DHT22;8620;51.168;4.154;2023-04-03T16:05:17;11.10;99.90
17007;DHT22;8620;51.168;4.154;2023-04-03T16:07:59;10.90;99.90
17007;DHT22;8620;51.168;4.154;2023-04-03T16:10:29;10.80;99.90
17007;DHT22;8620;51.168;4.154;2023-04-03T16:12:58;11.00;99.90
17007;DHT22;8620;51.168;4.154;2023-04-03T16:15:53;11.10;99.90
17007;DHT22;8620;51.168;4.154;2023-04-03T16:18:39;11.00;99.90
17007;DHT22;8620;51.168;4.154;2023-04-03T16:21:30;10.90;99.90
17007;DHT22;8620;51.168;4.154;2023-04-03T16:24:12;10.70;99.90
17007;DHT22;8620;51.168;4.154;2023-04-03T16:26:58;10.70;99.90
17007;DHT22;8620;51.168;4.154;2023-04-03T16:29:44;10.80;99.90
17007;DHT22;8620;51.168;4.154;2023-04-03T16:33:03;10.70;99.90
17007;DHT22;8620;51.168;4.154;2023-04-03T16:36:22;10.60;99.90
17007;DHT22;8620;51.168;4.154;2023-04-03T16:39:43;10.60;99.90
17007;DHT22;8620;51.168;4.154;2023-04-03T16:42:26;10.90;99.90
17007;DHT22;8620;51.168;4.154;2023-04-03T16:45:14;10.80;99.90
17007;DHT22;8620;51.168;4.154;2023-04-03T16:47:58;10.60;99.90
17007;DHT22;8620;51.168;4.154;2023-04-03T16:50:49;10.70;99.90
17007;DHT22;8620;51.168;4.154;2023-04-03T16:53:39;10.80;99.90
17007;DHT22;8620;51.168;4.154;2023-04-03T16:56:40;10.70;99.90
17007;DHT22;8620;51.168;4.154;2023-04-03T16:59:46;10.40;99.90
17007;DHT22;8620;51.168;4.154;2023-04-03T17:02:30;10.50;99.90
17007;DHT22;8620;51.168;4.154;2023-04-03T17:05:16;10.40;99.90
17007;DHT22;8620;51.168;4.154;2023-04-03T17:07:48;10.30;99.90
17007;DHT22;8620;51.168;4.154;2023-04-03T17:10:31;10.30;99.90
17007;DHT22;8620;51.168;4.154;2023-04-03T17:13:06;10.50;99.90
17007;DHT22;8620;51.168;4.154;2023-04-03T17:15:53;10.50;99.90
17007;DHT22;8620;51.168;4.154;2023-04-03T17:18:19;10.20;99.90
17007;DHT22;8620;51.168;4.154;2023-04-03T17:21:15;10.10;99.90
17007;DHT22;8620;51.168;4.154;2023-04-03T17:23:47;10.20;99.90
17007;DHT22;8620;51.168;4.154;2023-04-03T17:26:36;10.10;99.90
17007;DHT22;8620;51.168;4.154;2023-04-03T17:29:19;10.10;99.90
17007;DHT22;8620;51.168;4.154;2023-04-03T17:31:53;10.00;99.90
17007;DHT22;8620;51.168;4.154;2023-04-03T17:34:39;9.80;99.90
17007;DHT22;8620;51.168;4.154;2023-04-03T17:37:48;9.90;99.90
17007;DHT22;8620;51.168;4.154;2023-04-03T17:40:50;10.00;99.90
17007;DHT22;8620;51.168;4.154;2023-04-03T17:43:41;9.70;99.90
17007;DHT22;8620;51.168;4.154;2023-04-03T17:46:59;9.80;99.90
17007;DHT22;8620;51.168;4.154;2023-04-03T17:50:18;9.80;99.90
17007;DHT22;8620;51.168;4.154;2023-04-03T17:53:24;9.90;99.90
17007;DHT22;8620;51.168;4.154;2023-04-03T17:56:34;9.80;99.90
17007;DHT22;8620;51.168;4.154;2023-04-03T18:05:58;9.50;99.90
17007;DHT22;8620;51.168;4.154;2023-04-03T18:12:40;9.50;99.90
17007;DHT22;8620;51.168;4.154;2023-04-03T18:16:02;9.50;99.90
17007;DHT22;8620;51.168;4.154;2023-04-03T18:19:24;9.40;99.90
17007;DHT22;8620;51.168;4.154;2023-04-03T18:22:22;9.30;99.90
17007;DHT22;8620;51.168;4.154;2023-04-03T18:25:36;9.30;99.90
17007;DHT22;8620;51.168;4.154;2023-04-03T18:31:40;9.20;99.90
17007;DHT22;8620;51.168;4.154;2023-04-03T18:34:52;9.20;99.90
17007;DHT22;8620;51.168;4.154;2023-04-03T18:38:01;9.30;99.90
17007;DHT22;8620;51.168;4.154;2023-04-03T18:41:21;9.20;99.90
17007;DHT22;8620;51.168;4.154;2023-04-03T18:44:28;9.00;99.90
17007;DHT22;8620;51.168;4.154;2023-04-03T18:47:30;9.10;99.90
17007;DHT22;8620;51.168;4.154;2023-04-03T18:50:19;9.00;99.90
17007;DHT22;8620;51.168;4.154;2023-04-03T18:53:14;8.80;99.90
17007;DHT22;8620;51.168;4.154;2023-04-03T18:56:06;8.60;99.90
17007;DHT22;8620;51.168;4.154;2023-04-03T18:58:55;8.60;99.90
17007;DHT22;8620;51.168;4.154;2023-04-03T19:01:47;8.20;99.90
17007;DHT22;8620;51.168;4.154;2023-04-03T19:04:24;8.20;99.90
17007;DHT22;8620;51.168;4.154;2023-04-03T19:07:22;8.10;99.90
17007;DHT22;8620;51.168;4.154;2023-04-03T19:10:38;8.10;99.90
17007;DHT22;8620;51.168;4.154;2023-04-03T19:13:35;8.10;99.90
17007;DHT22;8620;51.168;4.154;2023-04-03T19:16:36;8.10;99.90
17007;DHT22;8620;51.168;4.154;2023-04-03T19:19:47;8.00;99.90
17007;DHT22;8620;51.168;4.154;2023-04-03T19:22:54;7.90;99.90
17007;DHT22;8620;51.168;4.154;2023-04-03T19:25:53;7.90;99.90
17007;DHT22;8620;51.168;4.154;2023-04-03T19:28:45;7.90;99.90
17007;DHT22;8620;51.168;4.154;2023-04-03T19:31:45;7.80;99.90
17007;DHT22;8620;51.168;4.154;2023-04-03T19:34:39;7.80;99.90
17007;DHT22;8620;51.168;4.154;2023-04-03T19:37:41;7.60;99.90
17007;DHT22;8620;51.168;4.154;2023-04-03T19:40:34;7.40;99.90
17007;DHT22;8620;51.168;4.154;2023-04-03T19:43:12;7.60;99.90
17007;DHT22;8620;51.168;4.154;2023-04-03T19:46:06;7.60;99.90
17007;DHT22;8620;51.168;4.154;2023-04-03T19:49:01;7.50;99.90
17007;DHT22;8620;51.168;4.154;2023-04-03T19:51:37;7.60;99.90
17007;DHT22;8620;51.168;4.154;2023-04-03T19:54:34;7.80;99.90
17007;DHT22;8620;51.168;4.154;2023-04-03T19:57:22;7.50;99.90
17007;DHT22;8620;51.168;4.154;2023-04-03T19:59:48;7.40;99.90
17007;DHT22;8620;51.168;4.154;2023-04-03T20:02:23;7.50;99.90
17007;DHT22;8620;51.168;4.154;2023-04-03T20:05:09;7.50;99.90
17007;DHT22;8620;51.168;4.154;2023-04-03T20:07:59;7.70;99.90
17007;DHT22;8620;51.168;4.154;2023-04-03T20:10:25;7.50;99.90
17007;DHT22;8620;51.168;4.154;2023-04-03T20:13:14;7.50;99.90
17007;DHT22;8620;51.168;4.154;2023-04-03T20:16:03;7.30;99.90
17007;DHT22;8620;51.168;4.154;2023-04-03T20:18:38;7.10;99.90
17007;DHT22;8620;51.168;4.154;2023-04-03T20:21:07;7.10;99.90
17007;DHT22;8620;51.168;4.154;2023-04-03T20:23:53;7.10;99.90
17007;DHT22;8620;51.168;4.154;2023-04-03T20:26:23;7.10;99.90
17007;DHT22;8620;51.168;4.154;2023-04-03T20:29:11;6.90;99.90
17007;DHT22;8620;51.168;4.154;2023-04-03T20:31:56;7.00;99.90
17007;DHT22;8620;51.168;4.154;2023-04-03T20:34:51;7.10;99.90
17007;DHT22;8620;51.168;4.154;2023-04-03T20:37:47;7.00;99.90
17007;DHT22;8620;51.168;4.154;2023-04-03T20:40:26;6.90;99.90
17007;DHT22;8620;51.168;4.154;2023-04-03T20:43:00;6.80;99.90
17007;DHT22;8620;51.168;4.154;2023-04-03T20:45:45;6.90;99.90
17007;DHT22;8620;51.168;4.154;2023-04-03T20:48:12;6.90;99.90
17007;DHT22;8620;51.168;4.154;2023-04-03T20:50:57;7.00;99.90
17007;DHT22;8620;51.168;4.154;2023-04-03T20:53:58;7.00;99.90
17007;DHT22;8620;51.168;4.154;2023-04-03T20:56:43;7.20;99.90
